createdAt,value
2023-03-27T00:01:58.258Z,19.72
2023-03-27T00:04:27.222Z,19.71
2023-03-27T00:06:56.013Z,19.75
2023-03-27T00:09:24.884Z,19.66
2023-03-27T00:11:53.684Z,19.63
2023-03-27T00:14:22.893Z,19.61
2023-03-27T00:16:51.947Z,19.58
2023-03-27T00:19:20.951Z,19.55
2023-03-27T00:21:49.696Z,19.57
2023-03-27T00:24:18.833Z,19.54
2023-03-27T00:26:47.563Z,19.51
2023-03-27T00:29:16.588Z,19.51
2023-03-27T00:31:45.419Z,19.55
2023-03-27T00:34:14.625Z,19.58
2023-03-27T00:36:44.631Z,19.51
2023-03-27T00:39:14.270Z,19.50
2023-03-27T00:41:43.569Z,19.47
2023-03-27T00:44:28.303Z,19.52
2023-03-27T00:46:58.116Z,19.46
2023-03-27T00:49:30.466Z,19.46
2023-03-27T00:52:00.837Z,19.44
2023-03-27T00:54:35.734Z,19.43
2023-03-27T00:57:10.197Z,19.44
2023-03-27T00:59:43.339Z,19.43
2023-03-27T01:02:16.741Z,19.39
2023-03-27T01:04:51.028Z,19.38
2023-03-27T01:07:23.304Z,19.32
2023-03-27T01:09:54.550Z,19.31
2023-03-27T01:12:48.139Z,19.37
2023-03-27T01:15:49.589Z,19.37
2023-03-27T01:18:46.994Z,19.40
2023-03-27T01:21:35.607Z,19.36
2023-03-27T01:24:20.533Z,19.39
2023-03-27T01:26:53.966Z,19.35
2023-03-27T01:29:33.039Z,19.41
2023-03-27T01:32:33.079Z,19.41
2023-03-27T01:35:26.168Z,19.46
2023-03-27T01:38:07.070Z,19.51
2023-03-27T01:41:00.207Z,19.48
2023-03-27T01:43:54.313Z,19.50
2023-03-27T01:46:43.906Z,19.61
2023-03-27T01:49:31.106Z,19.66
2023-03-27T01:52:11.050Z,19.78
2023-03-27T01:54:52.035Z,19.88
2023-03-27T01:57:36.879Z,19.95
2023-03-27T02:00:25.355Z,19.96
2023-03-27T02:03:21.657Z,20.07
2023-03-27T02:06:16.794Z,20.15
2023-03-27T02:09:22.680Z,20.27
2023-03-27T02:12:09.716Z,20.25
2023-03-27T02:14:51.044Z,20.26
2023-03-27T02:17:27.105Z,20.43
2023-03-27T02:20:03.532Z,20.45
2023-03-27T02:22:37.661Z,20.55
2023-03-27T02:25:27.715Z,20.67
2023-03-27T02:28:38.204Z,20.78
2023-03-27T02:31:34.102Z,20.82
2023-03-27T02:34:58.014Z,20.95
2023-03-27T02:37:39.305Z,21.10
2023-03-27T02:40:45.988Z,21.07
2023-03-27T02:44:09.491Z,21.17
2023-03-27T02:47:14.014Z,21.28
2023-03-27T02:49:50.025Z,21.41
2023-03-27T02:52:32.258Z,21.50
2023-03-27T02:55:07.873Z,21.46
2023-03-27T02:57:40.220Z,21.57
2023-03-27T03:00:34.801Z,21.69
2023-03-27T03:03:28.726Z,21.73
2023-03-27T03:06:08.168Z,21.79
2023-03-27T03:08:39.409Z,21.80
2023-03-27T03:11:14.348Z,21.95
2023-03-27T03:13:43.518Z,21.97
2023-03-27T03:16:12.473Z,22.05
2023-03-27T03:18:41.800Z,22.06
2023-03-27T03:21:10.684Z,22.22
2023-03-27T03:23:40.200Z,22.23
2023-03-27T03:26:09.637Z,22.35
2023-03-27T03:29:00.852Z,22.46
2023-03-27T03:31:44.202Z,22.38
2023-03-27T03:34:23.438Z,22.48
2023-03-27T03:36:56.137Z,22.67
2023-03-27T03:39:31.039Z,22.80
2023-03-27T03:42:00.028Z,22.74
2023-03-27T03:44:28.879Z,22.90
2023-03-27T03:46:59.181Z,22.93
2023-03-27T03:49:28.171Z,22.93
2023-03-27T03:52:03.627Z,23.06
2023-03-27T03:54:34.677Z,23.17
2023-03-27T03:57:04.143Z,23.28
2023-03-27T03:59:35.183Z,23.26
2023-03-27T04:02:30.370Z,23.48
2023-03-27T04:05:09.528Z,23.57
2023-03-27T04:07:41.823Z,23.59
2023-03-27T04:10:30.639Z,23.63
2023-03-27T04:13:01.835Z,23.75
2023-03-27T04:15:38.657Z,23.82
2023-03-27T04:18:31.195Z,23.95
2023-03-27T04:21:03.443Z,23.99
2023-03-27T04:23:32.517Z,24.02
2023-03-27T04:26:04.838Z,24.03
2023-03-27T04:29:03.268Z,24.25
2023-03-27T04:32:07.388Z,24.35
2023-03-27T04:34:42.995Z,24.33
2023-03-27T04:37:32.245Z,24.56
2023-03-27T04:40:18.849Z,24.64
2023-03-27T04:42:48.028Z,24.62
2023-03-27T04:45:21.109Z,24.78
2023-03-27T04:47:52.498Z,24.86
2023-03-27T04:50:22.506Z,24.72
2023-03-27T04:52:52.841Z,24.86
2023-03-27T04:55:26.705Z,24.98
2023-03-27T04:57:58.393Z,25.05
2023-03-27T05:00:28.729Z,25.28
2023-03-27T05:03:30.057Z,25.32
2023-03-27T05:06:09.421Z,25.46
2023-03-27T05:08:39.247Z,25.47
2023-03-27T05:11:08.752Z,25.59
2023-03-27T05:13:42.701Z,25.62
2023-03-27T05:16:13.243Z,25.54
2023-03-27T05:18:46.971Z,25.72
2023-03-27T05:21:15.870Z,25.81
2023-03-27T05:23:44.944Z,25.82
2023-03-27T05:26:14.149Z,26.05
2023-03-27T05:28:52.225Z,25.83
2023-03-27T05:31:21.413Z,26.08
2023-03-27T05:33:56.579Z,25.93
2023-03-27T05:36:29.448Z,25.96
2023-03-27T05:38:59.524Z,26.04
2023-03-27T05:41:42.203Z,26.15
2023-03-27T05:44:11.396Z,26.29
2023-03-27T05:46:43.646Z,26.40
2023-03-27T05:49:18.841Z,26.30
2023-03-27T05:51:53.642Z,26.41
2023-03-27T05:54:22.871Z,26.49
2023-03-27T05:56:57.482Z,26.67
2023-03-27T05:59:27.477Z,26.69
2023-03-27T06:02:02.864Z,26.90
2023-03-27T06:04:46.081Z,26.97
2023-03-27T06:07:27.693Z,26.99
2023-03-27T06:10:02.481Z,27.08
2023-03-27T06:12:31.436Z,27.25
2023-03-27T06:15:12.412Z,27.35
2023-03-27T06:17:49.266Z,27.44
2023-03-27T06:20:20.947Z,27.20
2023-03-27T06:23:04.572Z,27.48
2023-03-27T06:25:39.812Z,27.34
2023-03-27T06:28:12.460Z,27.75
2023-03-27T06:30:50.893Z,27.89
2023-03-27T06:33:33.943Z,27.93
2023-03-27T06:36:07.007Z,28.07
2023-03-27T06:38:38.490Z,28.13
2023-03-27T06:41:07.606Z,28.14
2023-03-27T06:44:09.089Z,28.17
2023-03-27T06:47:03.288Z,28.25
2023-03-27T06:49:48.790Z,27.86
2023-03-27T06:52:23.222Z,28.06
2023-03-27T06:54:53.942Z,28.17
2023-03-27T06:57:23.128Z,28.15
2023-03-27T06:59:58.112Z,28.14
2023-03-27T07:02:58.914Z,28.28
2023-03-27T07:05:49.868Z,27.79
2023-03-27T07:08:24.485Z,28.03
2023-03-27T07:11:10.678Z,28.21
2023-03-27T07:13:54.374Z,28.18
2023-03-27T07:16:28.051Z,28.20
2023-03-27T07:19:01.204Z,28.25
2023-03-27T07:21:33.189Z,28.35
2023-03-27T07:24:02.673Z,27.69
2023-03-27T07:26:37.851Z,27.99
2023-03-27T07:29:23.196Z,28.02
2023-03-27T07:31:58.911Z,28.35
2023-03-27T07:34:35.992Z,28.32
2023-03-27T07:37:07.844Z,28.22
2023-03-27T07:39:39.892Z,28.20
2023-03-27T07:42:11.992Z,28.31
2023-03-27T07:45:01.360Z,28.51
2023-03-27T07:47:33.514Z,28.57
2023-03-27T07:50:13.746Z,28.39
2023-03-27T07:52:48.414Z,28.72
2023-03-27T07:55:19.871Z,28.69
2023-03-27T07:58:03.216Z,28.40
2023-03-27T08:00:40.797Z,28.40
2023-03-27T08:03:16.167Z,28.45
2023-03-27T08:06:00.964Z,28.58
2023-03-27T08:08:34.052Z,28.50
2023-03-27T08:11:06.192Z,28.59
2023-03-27T08:13:41.116Z,28.60
2023-03-27T08:16:15.868Z,28.67
2023-03-27T08:18:48.001Z,28.69
2023-03-27T08:21:18.436Z,28.77
2023-03-27T08:23:51.723Z,28.80
2023-03-27T08:26:30.068Z,28.74
2023-03-27T08:29:03.014Z,28.67
2023-03-27T08:31:34.412Z,28.63
2023-03-27T08:34:05.941Z,28.68
2023-03-27T08:37:00.752Z,28.52
2023-03-27T08:39:49.722Z,28.37
2023-03-27T08:42:30.921Z,28.22
2023-03-27T08:45:21.924Z,28.17
2023-03-27T08:48:03.779Z,28.27
2023-03-27T08:50:38.932Z,28.41
2023-03-27T08:53:33.926Z,28.35
2023-03-27T08:56:06.150Z,28.50
2023-03-27T08:58:40.237Z,28.58
2023-03-27T09:01:41.988Z,28.66
2023-03-27T09:04:37.544Z,28.65
2023-03-27T09:07:33.978Z,28.45
2023-03-27T09:10:16.250Z,28.71
2023-03-27T09:13:05.696Z,28.74
2023-03-27T09:15:42.986Z,28.76
2023-03-27T09:18:22.322Z,28.63
2023-03-27T09:21:04.518Z,28.79
2023-03-27T09:23:55.406Z,28.74
2023-03-27T09:27:06.707Z,28.73
2023-03-27T09:29:50.858Z,28.56
2023-03-27T09:32:45.925Z,28.66
2023-03-27T09:35:16.523Z,28.77
2023-03-27T09:37:47.548Z,28.74
2023-03-27T09:40:44.081Z,28.92
2023-03-27T09:43:24.590Z,28.94
2023-03-27T09:45:56.076Z,28.91
2023-03-27T09:48:58.372Z,28.93
2023-03-27T09:51:37.390Z,28.79
2023-03-27T09:54:08.959Z,28.81
2023-03-27T09:56:45.454Z,28.83
2023-03-27T09:59:59.595Z,28.78
2023-03-27T10:02:32.041Z,28.76
2023-03-27T10:05:23.009Z,28.67
2023-03-27T10:07:56.491Z,28.64
2023-03-27T10:10:46.669Z,28.34
2023-03-27T10:13:30.695Z,28.42
2023-03-27T10:16:07.942Z,28.48
2023-03-27T10:18:58.345Z,28.73
2023-03-27T10:21:40.460Z,28.72
2023-03-27T10:24:19.394Z,28.68
2023-03-27T10:27:24.321Z,28.37
2023-03-27T10:30:34.476Z,28.40
2023-03-27T10:33:43.312Z,28.10
2023-03-27T10:36:48.048Z,28.33
2023-03-27T10:39:21.749Z,28.41
2023-03-27T10:42:14.651Z,28.46
2023-03-27T10:44:50.151Z,28.29
2023-03-27T10:47:33.886Z,28.38
2023-03-27T10:50:34.565Z,28.49
2023-03-27T10:53:21.831Z,28.47
2023-03-27T10:56:06.994Z,28.39
2023-03-27T10:58:48.652Z,28.37
2023-03-27T11:01:45.757Z,28.49
2023-03-27T11:04:39.441Z,28.41
2023-03-27T11:07:18.828Z,28.05
2023-03-27T11:10:03.971Z,28.23
2023-03-27T11:12:38.936Z,28.31
2023-03-27T11:15:27.299Z,28.25
2023-03-27T11:18:04.071Z,28.11
2023-03-27T11:20:53.465Z,28.10
2023-03-27T11:23:39.458Z,28.06
2023-03-27T11:26:37.758Z,28.07
2023-03-27T11:29:36.702Z,27.95
2023-03-27T11:32:20.902Z,27.88
2023-03-27T11:35:03.940Z,27.87
2023-03-27T11:37:57.296Z,27.67
2023-03-27T11:40:50.368Z,27.87
2023-03-27T11:43:21.309Z,27.71
2023-03-27T11:46:29.807Z,27.71
2023-03-27T11:49:27.197Z,27.66
2023-03-27T11:52:27.947Z,27.72
2023-03-27T11:55:18.325Z,27.57
2023-03-27T11:58:01.121Z,27.40
2023-03-27T12:01:09.022Z,27.49
2023-03-27T12:04:15.039Z,27.46
2023-03-27T12:07:04.918Z,27.40
2023-03-27T12:10:07.171Z,27.39
2023-03-27T12:13:42.222Z,27.25
2023-03-27T12:16:23.233Z,27.14
2023-03-27T12:19:38.486Z,27.22
2023-03-27T12:22:43.216Z,27.15
2023-03-27T12:25:29.335Z,27.09
2023-03-27T12:28:25.095Z,27.05
2023-03-27T12:31:42.946Z,26.96
2023-03-27T12:34:33.162Z,26.85
2023-03-27T12:37:04.639Z,26.77
2023-03-27T12:39:44.949Z,26.70
2023-03-27T12:42:16.391Z,26.64
2023-03-27T12:45:15.360Z,26.70
2023-03-27T12:48:08.944Z,26.67
2023-03-27T12:50:56.602Z,26.61
2023-03-27T12:53:27.728Z,26.49
2023-03-27T12:56:20.398Z,26.57
2023-03-27T12:58:54.001Z,26.51
2023-03-27T13:01:51.616Z,26.45
2023-03-27T13:04:47.704Z,26.47
2023-03-27T13:07:37.698Z,26.46
2023-03-27T13:10:28.307Z,26.34
2023-03-27T13:13:10.136Z,26.38
2023-03-27T13:15:44.875Z,26.25
2023-03-27T13:19:00.482Z,26.27
2023-03-27T13:21:46.825Z,26.26
2023-03-27T13:24:38.893Z,26.14
2023-03-27T13:27:34.027Z,26.15
2023-03-27T13:30:04.847Z,26.09
2023-03-27T13:33:25.084Z,26.17
2023-03-27T13:36:01.129Z,26.10
2023-03-27T13:39:16.132Z,26.05
2023-03-27T13:42:23.878Z,26.11
2023-03-27T13:45:07.049Z,26.13
2023-03-27T13:48:05.399Z,26.11
2023-03-27T13:50:55.837Z,26.18
2023-03-27T13:53:52.818Z,26.13
2023-03-27T13:56:53.189Z,26.19
2023-03-27T14:00:11.192Z,26.13
2023-03-27T14:02:54.695Z,26.05
2023-03-27T14:06:04.120Z,26.04
2023-03-27T14:09:01.189Z,25.94
2023-03-27T14:12:03.497Z,25.83
2023-03-27T14:15:16.989Z,25.87
2023-03-27T14:18:27.895Z,25.84
2023-03-27T14:21:04.977Z,25.70
2023-03-27T14:23:53.353Z,25.74
2023-03-27T14:26:36.410Z,25.51
2023-03-27T14:29:06.028Z,25.46
2023-03-27T14:31:45.078Z,25.33
2023-03-27T14:34:25.759Z,25.29
2023-03-27T14:37:31.468Z,25.27
2023-03-27T14:40:21.899Z,25.21
2023-03-27T14:42:53.533Z,25.10
2023-03-27T14:45:28.236Z,25.08
2023-03-27T14:48:03.827Z,25.05
2023-03-27T14:50:43.562Z,24.98
2023-03-27T14:53:18.201Z,24.97
2023-03-27T14:56:17.068Z,24.94
2023-03-27T14:59:18.915Z,24.89
2023-03-27T15:01:55.816Z,24.77
2023-03-27T15:04:28.092Z,24.75
2023-03-27T15:07:16.373Z,24.76
2023-03-27T15:10:07.306Z,24.72
2023-03-27T15:12:55.353Z,24.57
2023-03-27T15:15:41.022Z,24.61
2023-03-27T15:18:26.777Z,24.56
2023-03-27T15:20:57.900Z,24.48
2023-03-27T15:23:31.556Z,24.55
2023-03-27T15:26:10.644Z,24.46
2023-03-27T15:28:59.512Z,24.42
2023-03-27T15:31:31.032Z,24.31
2023-03-27T15:34:11.561Z,24.32
2023-03-27T15:36:44.036Z,24.23
2023-03-27T15:39:22.651Z,24.25
2023-03-27T15:41:54.066Z,24.17
2023-03-27T15:44:26.803Z,24.12
2023-03-27T15:46:57.174Z,24.18
2023-03-27T15:49:38.851Z,24.12
2023-03-27T15:52:33.264Z,24.12
2023-03-27T15:55:04.038Z,23.99
2023-03-27T15:57:33.190Z,23.94
2023-03-27T16:00:09.696Z,23.95
2023-03-27T16:02:42.037Z,23.87
2023-03-27T16:05:19.262Z,23.92
2023-03-27T16:07:49.973Z,23.88
2023-03-27T16:10:34.885Z,23.87
2023-03-27T16:13:07.338Z,23.77
2023-03-27T16:15:43.435Z,23.79
2023-03-27T16:18:25.438Z,23.75
2023-03-27T16:20:54.707Z,23.65
2023-03-27T16:23:23.715Z,23.61
2023-03-27T16:25:52.565Z,23.58
2023-03-27T16:28:21.364Z,23.57
2023-03-27T16:30:50.787Z,23.55
2023-03-27T16:33:23.398Z,23.58
2023-03-27T16:35:53.129Z,23.54
2023-03-27T16:38:22.556Z,23.50
2023-03-27T16:40:51.830Z,23.48
2023-03-27T16:43:20.519Z,23.47
2023-03-27T16:45:49.882Z,23.46
2023-03-27T16:48:18.616Z,23.43
2023-03-27T16:50:47.635Z,23.40
2023-03-27T16:53:16.404Z,23.41
2023-03-27T16:55:45.712Z,23.36
2023-03-27T16:58:15.057Z,23.34
2023-03-27T17:00:44.064Z,23.30
2023-03-27T17:03:13.147Z,23.32
2023-03-27T17:05:44.948Z,23.28
2023-03-27T17:08:17.286Z,23.26
2023-03-27T17:10:46.355Z,23.40
2023-03-27T17:13:15.104Z,23.23
2023-03-27T17:15:44.304Z,23.18
2023-03-27T17:18:13.298Z,23.10
2023-03-27T17:20:42.766Z,23.11
2023-03-27T17:23:12.840Z,23.12
2023-03-27T17:25:43.225Z,23.07
2023-03-27T17:28:12.934Z,23.07
2023-03-27T17:30:56.603Z,23.09
2023-03-27T17:33:30.748Z,22.97
2023-03-27T17:35:59.753Z,22.94
2023-03-27T17:38:29.166Z,22.92
2023-03-27T17:40:58.859Z,22.92
2023-03-27T17:43:28.666Z,22.87
2023-03-27T17:45:57.694Z,22.84
2023-03-27T17:48:27.108Z,22.81
2023-03-27T17:51:08.054Z,22.73
2023-03-27T17:53:39.612Z,22.74
2023-03-27T17:56:09.268Z,22.70
2023-03-27T17:58:38.423Z,22.68
2023-03-27T18:01:20.644Z,22.70
2023-03-27T18:03:50.261Z,22.66
2023-03-27T18:06:19.788Z,22.65
2023-03-27T18:08:48.788Z,22.64
2023-03-27T18:11:17.897Z,22.63
2023-03-27T18:13:52.246Z,22.65
2023-03-27T18:16:22.591Z,22.66
2023-03-27T18:18:53.584Z,22.60
2023-03-27T18:21:23.019Z,22.54
2023-03-27T18:23:53.857Z,22.53
2023-03-27T18:26:23.074Z,22.50
2023-03-27T18:28:53.231Z,22.44
2023-03-27T18:31:22.243Z,22.43
2023-03-27T18:33:51.148Z,22.42
2023-03-27T18:36:20.181Z,22.34
2023-03-27T18:38:49.785Z,22.31
2023-03-27T18:41:18.905Z,22.30
2023-03-27T18:43:47.799Z,22.30
2023-03-27T18:46:19.694Z,22.26
2023-03-27T18:48:51.752Z,22.25
2023-03-27T18:51:20.773Z,22.24
2023-03-27T18:53:51.710Z,22.29
2023-03-27T18:56:20.619Z,22.20
2023-03-27T18:58:49.367Z,22.17
2023-03-27T19:01:18.587Z,22.15
2023-03-27T19:03:47.984Z,22.12
2023-03-27T19:06:20.533Z,22.14
2023-03-27T19:08:49.780Z,22.13
2023-03-27T19:11:19.739Z,22.13
2023-03-27T19:14:07.793Z,22.15
2023-03-27T19:17:06.700Z,22.14
2023-03-27T19:19:55.960Z,22.13
2023-03-27T19:22:47.829Z,22.10
2023-03-27T19:25:28.597Z,22.08
2023-03-27T19:27:57.582Z,22.08
2023-03-27T19:30:26.529Z,22.09
2023-03-27T19:32:56.736Z,22.09
2023-03-27T19:35:26.698Z,22.06
2023-03-27T19:37:55.410Z,22.03
2023-03-27T19:40:24.957Z,22.02
2023-03-27T19:42:53.964Z,21.99
2023-03-27T19:45:22.847Z,21.97
2023-03-27T19:47:51.902Z,21.98
2023-03-27T19:50:20.851Z,21.95
2023-03-27T19:53:08.469Z,21.84
2023-03-27T19:55:38.615Z,21.88
2023-03-27T19:58:07.576Z,21.84
2023-03-27T20:00:40.810Z,21.80
2023-03-27T20:03:11.477Z,21.82
2023-03-27T20:05:49.368Z,21.90
2023-03-27T20:08:20.465Z,21.82
2023-03-27T20:10:51.236Z,21.81
2023-03-27T20:13:22.460Z,21.91
2023-03-27T20:15:54.223Z,21.80
2023-03-27T20:18:24.601Z,21.74
2023-03-27T20:20:56.282Z,21.86
2023-03-27T20:23:34.334Z,21.77
2023-03-27T20:26:04.500Z,21.81
2023-03-27T20:28:37.926Z,21.83
2023-03-27T20:31:08.807Z,21.84
2023-03-27T20:33:38.984Z,21.84
2023-03-27T20:36:09.146Z,21.79
2023-03-27T20:38:38.944Z,21.79
2023-03-27T20:41:09.486Z,21.79
2023-03-27T20:43:40.356Z,21.76
2023-03-27T20:46:12.219Z,21.73
2023-03-27T20:48:54.132Z,21.78
2023-03-27T20:51:25.510Z,21.71
2023-03-27T20:53:58.941Z,21.70
2023-03-27T20:56:29.012Z,21.67
2023-03-27T20:58:58.759Z,21.64
2023-03-27T21:01:29.816Z,21.64
2023-03-27T21:04:03.362Z,21.60
2023-03-27T21:06:35.957Z,21.53
2023-03-27T21:09:07.095Z,21.55
2023-03-27T21:11:38.206Z,21.54
2023-03-27T21:14:08.363Z,21.52
2023-03-27T21:16:38.917Z,21.46
2023-03-27T21:19:08.950Z,21.47
2023-03-27T21:21:39.326Z,21.39
2023-03-27T21:24:09.283Z,21.39
2023-03-27T21:26:38.996Z,21.38
2023-03-27T21:29:11.934Z,21.38
2023-03-27T21:31:42.959Z,21.43
2023-03-27T21:34:12.636Z,21.40
2023-03-27T21:36:41.492Z,21.36
2023-03-27T21:39:11.781Z,21.34
2023-03-27T21:41:40.842Z,21.30
2023-03-27T21:44:09.630Z,21.27
2023-03-27T21:46:38.977Z,21.26
2023-03-27T21:49:07.900Z,21.19
2023-03-27T21:51:37.056Z,21.18
2023-03-27T21:54:06.091Z,21.15
2023-03-27T21:56:35.219Z,21.10
2023-03-27T21:59:03.969Z,21.06
2023-03-27T22:01:33.046Z,21.03
2023-03-27T22:04:03.132Z,21.02
2023-03-27T22:06:32.496Z,21.03
2023-03-27T22:09:01.562Z,21.03
2023-03-27T22:11:30.712Z,21.01
2023-03-27T22:14:00.160Z,21.00
2023-03-27T22:16:29.829Z,21.00
2023-03-27T22:18:58.791Z,20.98
2023-03-27T22:21:30.232Z,21.00
2023-03-27T22:24:00.548Z,20.98
2023-03-27T22:26:35.163Z,21.05
2023-03-27T22:29:05.080Z,21.04
2023-03-27T22:31:33.855Z,20.97
2023-03-27T22:34:05.240Z,20.97
2023-03-27T22:36:35.169Z,20.99
2023-03-27T22:39:04.092Z,20.91
2023-03-27T22:41:33.043Z,20.89
2023-03-27T22:44:02.679Z,20.87
2023-03-27T22:46:31.709Z,20.83
2023-03-27T22:49:00.679Z,20.84
2023-03-27T22:51:31.843Z,20.83
2023-03-27T22:54:01.168Z,20.79
2023-03-27T22:56:30.023Z,20.75
2023-03-27T22:58:59.217Z,20.74
2023-03-27T23:01:28.088Z,20.73
2023-03-27T23:03:57.345Z,20.68
2023-03-27T23:06:26.462Z,20.67
2023-03-27T23:08:55.588Z,20.68
2023-03-27T23:11:24.636Z,20.67
2023-03-27T23:13:53.611Z,20.64
2023-03-27T23:16:22.509Z,20.64
2023-03-27T23:18:51.598Z,20.60
2023-03-27T23:21:20.473Z,20.59
2023-03-27T23:23:49.641Z,20.60
2023-03-27T23:26:19.098Z,20.62
2023-03-27T23:28:48.329Z,20.61
2023-03-27T23:31:19.623Z,20.63
2023-03-27T23:33:51.643Z,20.63
2023-03-27T23:36:23.500Z,20.65
2023-03-27T23:38:53.811Z,20.65
2023-03-27T23:41:23.406Z,20.66
2023-03-27T23:43:52.437Z,20.68
2023-03-27T23:46:21.430Z,20.67
2023-03-27T23:48:50.374Z,20.66
2023-03-27T23:51:19.423Z,20.63
2023-03-27T23:53:48.111Z,20.63
2023-03-27T23:56:17.098Z,20.62
2023-03-27T23:58:45.965Z,20.62
